Time;durP1;ratioP1;P1;durP2;ratioP2;P2;SDS_P1;SDS_P2;PMS_P1;PMS_P2;Temp;Humidity;BMP_temperature;BMP_pressure;BME280_temperature;BME280_humidity;BME280_pressure;Samples;Min_cycle;Max_cycle;Signal;HPM_P1;HPM_P2
2022/01/23 00:01:46;;;;;;;6.77;3.23;;;1.10;99.90;;;;;;5053511;28;20278;-69
2022/01/23 00:04:13;;;;;;;6.17;3.20;;;1.10;99.90;;;;;;5053233;28;20655;-69
2022/01/23 00:06:39;;;;;;;7.13;2.80;;;1.00;99.90;;;;;;5055127;28;20209;-69
2022/01/23 00:09:06;;;;;;;6.70;3.40;;;1.00;99.90;;;;;;5056418;28;20310;-69
2022/01/23 00:11:39;;;;;;;5.67;2.97;;;1.10;99.90;;;;;;5057293;28;20236;-68
2022/01/23 00:19:36;;;;;;;4.00;2.97;;;1.00;99.90;;;;;;5056522;28;20220;-68
2022/01/23 00:22:03;;;;;;;9.10;3.33;;;1.00;99.90;;;;;;5056856;28;20206;-69
2022/01/23 00:32:43;;;;;;;9.80;4.03;;;1.00;99.90;;;;;;5052503;28;20290;-69
2022/01/23 00:35:10;;;;;;;7.60;3.43;;;0.90;99.90;;;;;;5054267;28;20197;-69
2022/01/23 00:37:37;;;;;;;10.13;4.50;;;0.90;99.90;;;;;;5054960;28;20212;-68
2022/01/23 00:40:06;;;;;;;8.37;3.00;;;0.90;99.90;;;;;;5055721;28;20209;-68
2022/01/23 00:42:33;;;;;;;5.80;3.63;;;0.90;99.90;;;;;;5056052;28;20673;-69
2022/01/23 00:45:13;;;;;;;6.93;3.53;;;0.90;99.90;;;;;;5056388;28;20212;-68
2022/01/23 00:47:40;;;;;;;9.37;3.70;;;0.90;99.90;;;;;;5056434;28;20269;-69
2022/01/23 00:50:09;;;;;;;10.00;3.90;;;0.90;99.90;;;;;;5051575;28;20210;-68
2022/01/23 00:52:36;;;;;;;7.63;3.50;;;0.90;99.90;;;;;;5043413;28;20659;-68
2022/01/23 00:55:04;;;;;;;7.07;3.73;;;0.90;99.90;;;;;;5055342;28;20208;-69
2022/01/23 00:57:33;;;;;;;9.03;3.70;;;1.00;99.90;;;;;;5056834;28;20226;-69
2022/01/23 01:00:00;;;;;;;8.00;4.10;;;0.90;99.90;;;;;;5055792;28;20555;-68
2022/01/23 01:02:28;;;;;;;8.70;3.93;;;1.00;99.90;;;;;;5055064;28;20197;-68
2022/01/23 01:04:55;;;;;;;7.23;4.10;;;0.90;99.90;;;;;;5055755;28;20212;-70
2022/01/23 01:07:23;;;;;;;10.27;4.50;;;0.90;99.90;;;;;;5054796;28;20305;-69
2022/01/23 01:09:52;;;;;;;6.63;4.47;;;0.90;99.90;;;;;;5053977;28;20577;-68
2022/01/23 01:12:24;;;;;;;11.70;5.03;;;0.90;99.90;;;;;;5054410;28;20590;-69
2022/01/23 01:15:22;;;;;;;10.57;4.37;;;0.90;99.90;;;;;;5054907;28;20201;-69
2022/01/23 01:31:35;;;;;;;7.00;3.27;;;0.90;99.90;;;;;;5053438;28;20287;-67
2022/01/23 01:34:06;;;;;;;8.50;3.53;;;0.90;99.90;;;;;;5052829;28;20305;-68
2022/01/23 01:36:39;;;;;;;7.33;3.10;;;0.90;99.90;;;;;;5048715;28;20202;-68
2022/01/23 01:39:07;;;;;;;7.47;3.80;;;0.90;99.90;;;;;;5053513;28;20224;-68
2022/01/23 01:41:35;;;;;;;5.23;3.40;;;0.90;99.90;;;;;;5053187;28;20194;-68
2022/01/23 01:44:03;;;;;;;8.27;3.53;;;0.90;99.90;;;;;;5051738;28;20201;-69
2022/01/23 01:46:30;;;;;;;8.07;3.63;;;0.90;99.90;;;;;;5047718;28;20206;-68
2022/01/23 01:48:57;;;;;;;6.53;3.30;;;0.90;99.90;;;;;;5054106;28;20205;-68
2022/01/23 01:51:24;;;;;;;7.53;3.50;;;0.90;99.90;;;;;;5053594;28;20581;-68
2022/01/23 01:53:56;;;;;;;6.67;3.40;;;0.90;99.90;;;;;;5053578;28;20202;-69
2022/01/23 01:56:25;;;;;;;8.30;3.90;;;0.90;99.90;;;;;;5053489;28;20694;-68
2022/01/23 02:09:49;;;;;;;8.37;3.60;;;0.90;99.90;;;;;;5053591;28;20579;-68
2022/01/23 02:12:50;;;;;;;6.97;3.00;;;0.90;99.90;;;;;;5053743;28;20240;-69
2022/01/23 02:15:39;;;;;;;9.23;3.60;;;0.80;99.90;;;;;;5053626;28;20620;-69
2022/01/23 02:18:19;;;;;;;11.87;4.10;;;0.90;99.90;;;;;;5052926;28;20679;-68
2022/01/23 02:23:54;;;;;;;7.07;3.33;;;0.90;99.90;;;;;;5009510;28;20690;-68
2022/01/23 02:51:02;;;;;;;6.93;3.47;;;0.90;99.90;;;;;;5039872;28;20266;-68
2022/01/23 02:53:42;;;;;;;8.57;3.13;;;0.90;99.90;;;;;;5053198;28;20216;-69
2022/01/23 02:56:19;;;;;;;5.77;3.03;;;0.90;99.90;;;;;;5052904;28;20658;-69
2022/01/23 02:58:57;;;;;;;7.77;3.60;;;0.90;99.90;;;;;;5050277;28;20675;-69
2022/01/23 03:01:28;;;;;;;5.77;3.47;;;0.90;99.90;;;;;;5050759;28;20221;-69
2022/01/23 03:04:00;;;;;;;8.37;3.50;;;0.90;99.90;;;;;;5050802;28;20495;-68
2022/01/23 03:06:51;;;;;;;5.90;3.50;;;0.90;99.90;;;;;;5050607;28;20296;-68
2022/01/23 03:12:26;;;;;;;6.70;2.77;;;0.90;99.90;;;;;;5050305;28;20238;-68
2022/01/23 03:14:58;;;;;;;7.73;3.33;;;0.90;99.90;;;;;;5031362;28;20304;-69
2022/01/23 03:26:13;;;;;;;7.47;3.13;;;1.00;99.90;;;;;;5050950;28;20201;-69
2022/01/23 03:29:01;;;;;;;5.07;2.90;;;1.00;99.90;;;;;;5041221;28;20590;-69
2022/01/23 03:31:33;;;;;;;6.63;3.50;;;1.00;99.90;;;;;;5049972;28;20237;-69
2022/01/23 03:34:00;;;;;;;8.13;3.77;;;1.00;99.90;;;;;;5050228;28;20209;-69
2022/01/23 03:36:27;;;;;;;7.40;3.33;;;1.00;99.90;;;;;;5047620;28;20202;-69
2022/01/23 03:38:53;;;;;;;7.47;3.50;;;1.00;99.90;;;;;;5050862;28;20202;-70
2022/01/23 03:41:22;;;;;;;10.13;3.87;;;1.00;99.90;;;;;;5054509;28;20206;-69
2022/01/23 03:43:49;;;;;;;12.70;3.33;;;1.00;99.90;;;;;;5053677;28;20216;-68
2022/01/23 03:46:34;;;;;;;6.77;3.87;;;1.00;99.90;;;;;;5053818;28;20220;-70
2022/01/23 03:51:45;;;;;;;6.30;2.83;;;1.10;99.90;;;;;;5054074;28;20744;-67
2022/01/23 03:54:12;;;;;;;9.40;3.93;;;1.10;99.90;;;;;;5054749;28;20205;-69
2022/01/23 03:56:40;;;;;;;7.77;3.57;;;1.10;99.90;;;;;;5054054;28;20238;-69
2022/01/23 03:59:07;;;;;;;7.37;3.17;;;1.20;99.90;;;;;;5054059;28;20198;-68
2022/01/23 04:01:34;;;;;;;10.87;3.60;;;1.10;99.90;;;;;;5054953;28;20296;-68
2022/01/23 04:04:06;;;;;;;8.90;3.63;;;1.10;99.90;;;;;;5054225;28;20213;-67
2022/01/23 04:06:33;;;;;;;7.70;3.40;;;1.10;99.90;;;;;;5053522;28;20206;-67
2022/01/23 04:09:00;;;;;;;5.50;3.30;;;1.10;99.90;;;;;;5054024;28;20209;-68
2022/01/23 04:11:27;;;;;;;9.07;4.00;;;1.10;99.90;;;;;;5053623;28;20737;-67
2022/01/23 04:14:01;;;;;;;5.97;3.40;;;1.10;99.90;;;;;;5054014;28;20735;-68
2022/01/23 04:16:44;;;;;;;4.93;3.07;;;1.10;99.90;;;;;;5053721;28;20559;-69
2022/01/23 04:19:19;;;;;;;7.97;3.70;;;1.20;99.90;;;;;;5050521;28;20610;-68
2022/01/23 04:33:14;;;;;;;7.30;3.17;;;2.00;99.90;;;;;;5053528;28;20221;-69
2022/01/23 04:45:12;;;;;;;8.53;2.60;;;1.20;99.90;;;;;;5053394;28;20204;-68
2022/01/23 04:47:25;;;;;;;7.57;3.53;;;1.20;99.90;;;;;;5052653;28;20622;-68
2022/01/23 05:00:51;;;;;;;8.50;3.43;;;1.20;99.90;;;;;;5039603;28;20201;-69
2022/01/23 05:04:06;;;;;;;6.10;3.47;;;1.20;99.90;;;;;;5052430;28;20662;-69
2022/01/23 05:06:41;;;;;;;8.00;3.50;;;1.20;99.90;;;;;;5044820;28;20201;-69
2022/01/23 05:09:08;;;;;;;6.80;3.27;;;1.20;99.90;;;;;;5053093;28;20205;-69
2022/01/23 05:11:36;;;;;;;7.70;3.70;;;1.20;99.90;;;;;;5053324;28;20260;-68
2022/01/23 05:14:04;;;;;;;10.03;3.70;;;1.20;99.90;;;;;;5051697;28;20234;-69
2022/01/23 05:16:32;;;;;;;7.60;4.10;;;1.10;99.90;;;;;;5051881;28;20217;-69
2022/01/23 05:19:03;;;;;;;8.80;3.73;;;1.10;99.90;;;;;;5052362;28;20206;-67
2022/01/23 05:24:12;;;;;;;7.37;4.00;;;1.10;99.90;;;;;;5046435;28;20251;-68
2022/01/23 05:26:43;;;;;;;9.90;4.43;;;1.00;99.90;;;;;;5052220;28;20206;-68
2022/01/23 05:29:11;;;;;;;8.63;4.13;;;1.00;99.90;;;;;;5052033;28;20210;-68
2022/01/23 05:31:38;;;;;;;9.63;4.60;;;1.00;99.90;;;;;;5051988;28;20231;-69
2022/01/23 05:34:07;;;;;;;9.07;4.07;;;1.00;99.90;;;;;;5052337;28;20606;-68
2022/01/23 05:36:34;;;;;;;10.37;4.80;;;1.10;99.90;;;;;;5045274;28;20643;-69
2022/01/23 05:39:01;;;;;;;9.37;4.03;;;1.00;99.90;;;;;;5052924;28;20292;-68
2022/01/23 05:41:28;;;;;;;11.37;4.50;;;1.10;99.90;;;;;;5048791;28;20202;-69
2022/01/23 05:43:55;;;;;;;10.23;3.73;;;1.10;99.90;;;;;;5051466;28;20201;-68
2022/01/23 05:46:22;;;;;;;9.10;4.27;;;1.00;99.90;;;;;;5052118;28;20557;-69
2022/01/23 05:48:48;;;;;;;8.73;3.67;;;1.00;99.90;;;;;;5052818;28;20224;-68
2022/01/23 05:51:16;;;;;;;7.27;3.67;;;1.00;99.90;;;;;;5052026;28;20681;-68
2022/01/23 05:53:43;;;;;;;7.40;3.53;;;1.00;99.90;;;;;;5051539;28;20324;-68
2022/01/23 05:56:10;;;;;;;8.67;3.60;;;1.10;99.90;;;;;;5050307;28;20226;-68
2022/01/23 05:58:37;;;;;;;6.40;3.63;;;1.00;99.90;;;;;;5051573;28;20228;-68
2022/01/23 06:01:05;;;;;;;7.53;3.90;;;1.10;99.90;;;;;;5051395;28;20210;-68
2022/01/23 06:03:32;;;;;;;9.77;3.40;;;1.00;99.90;;;;;;5051541;28;20204;-68
2022/01/23 06:05:58;;;;;;;7.83;3.30;;;1.10;99.90;;;;;;5051584;28;20210;-68
2022/01/23 06:08:27;;;;;;;6.13;3.20;;;1.00;99.90;;;;;;5051770;28;20206;-68
2022/01/23 06:10:56;;;;;;;7.70;3.33;;;1.10;99.90;;;;;;5051099;28;20254;-68
2022/01/23 06:13:24;;;;;;;8.37;3.77;;;1.10;99.90;;;;;;5051537;28;20237;-68
2022/01/23 06:15:51;;;;;;;6.27;3.60;;;1.10;99.90;;;;;;5051475;28;20384;-68
2022/01/23 06:18:18;;;;;;;8.80;3.87;;;1.10;99.90;;;;;;5051497;28;20667;-68
2022/01/23 06:20:45;;;;;;;5.20;2.83;;;1.20;99.90;;;;;;5051320;28;20313;-69
2022/01/23 06:23:12;;;;;;;7.20;3.27;;;1.20;99.90;;;;;;5051532;28;20201;-68
2022/01/23 06:25:43;;;;;;;8.73;3.27;;;1.20;99.90;;;;;;5060424;28;20269;-69
2022/01/23 06:28:10;;;;;;;5.10;3.07;;;1.20;99.90;;;;;;5068290;28;20206;-69
2022/01/23 06:30:38;;;;;;;6.23;3.37;;;1.20;99.90;;;;;;5067435;28;20206;-69
2022/01/23 06:33:05;;;;;;;7.47;3.33;;;1.20;99.90;;;;;;5052517;28;20226;-69
2022/01/23 06:35:32;;;;;;;5.13;3.23;;;0.20;99.90;;;;;;5053681;28;20210;-69
2022/01/23 06:37:59;;;;;;;6.70;2.93;;;1.20;99.90;;;;;;5055556;28;20206;-69
2022/01/23 06:40:26;;;;;;;7.87;2.80;;;1.20;99.90;;;;;;5053916;28;20209;-69
2022/01/23 06:42:54;;;;;;;9.23;2.90;;;1.20;99.90;;;;;;5053375;28;20220;-70
2022/01/23 06:45:22;;;;;;;4.10;2.47;;;1.20;99.90;;;;;;5053857;28;20214;-69
2022/01/23 06:47:48;;;;;;;6.93;2.83;;;1.10;99.90;;;;;;5053516;28;20588;-69
2022/01/23 06:50:15;;;;;;;5.80;3.67;;;1.20;99.90;;;;;;5051244;28;20205;-69
2022/01/23 06:52:42;;;;;;;4.37;2.43;;;1.10;99.90;;;;;;5052372;28;20226;-69
2022/01/23 06:55:09;;;;;;;6.50;2.87;;;1.20;99.90;;;;;;5052344;28;20202;-69
2022/01/23 06:57:36;;;;;;;4.40;2.67;;;1.20;99.90;;;;;;5052484;28;20233;-68
2022/01/23 07:00:06;;;;;;;5.57;3.27;;;1.20;99.90;;;;;;5052274;28;20214;-68
2022/01/23 07:02:33;;;;;;;4.80;2.73;;;1.20;99.90;;;;;;5050920;28;20224;-69
2022/01/23 07:05:00;;;;;;;3.53;2.60;;;1.20;99.90;;;;;;5051698;28;20233;-69
2022/01/23 07:07:27;;;;;;;6.47;2.70;;;1.20;99.90;;;;;;5050965;28;20567;-68
2022/01/23 07:09:54;;;;;;;3.27;2.50;;;1.20;99.90;;;;;;5051106;28;20235;-70
2022/01/23 07:12:21;;;;;;;3.70;1.90;;;1.10;99.90;;;;;;5050433;28;20233;-70
2022/01/23 07:14:50;;;;;;;6.90;2.33;;;1.10;99.90;;;;;;5053963;28;20304;-70
2022/01/23 07:17:18;;;;;;;4.33;2.43;;;1.10;99.90;;;;;;5054475;28;20232;-69
2022/01/23 07:19:45;;;;;;;5.50;2.43;;;1.00;99.90;;;;;;5055021;28;20205;-69
2022/01/23 07:22:12;;;;;;;6.63;2.80;;;1.00;99.90;;;;;;5054496;28;20210;-70
2022/01/23 07:24:38;;;;;;;3.00;2.20;;;1.10;99.90;;;;;;5055170;28;20240;-69
2022/01/23 07:27:13;;;;;;;3.30;2.10;;;1.10;99.90;;;;;;5042651;28;20247;-70
2022/01/23 07:29:42;;;;;;;4.07;1.80;;;1.10;99.90;;;;;;5045623;28;20201;-70
2022/01/23 07:32:10;;;;;;;4.73;1.97;;;1.20;99.90;;;;;;5053473;28;20198;-72
2022/01/23 07:34:38;;;;;;;2.40;1.70;;;1.20;99.90;;;;;;5054051;28;20206;-71
2022/01/23 07:37:05;;;;;;;3.83;1.50;;;1.20;99.90;;;;;;5049553;28;20208;-70
2022/01/23 07:39:32;;;;;;;3.07;1.50;;;1.10;99.90;;;;;;5045905;28;20202;-70
2022/01/23 07:41:59;;;;;;;2.87;1.47;;;1.10;99.90;;;;;;5055136;28;20206;-69
2022/01/23 07:44:26;;;;;;;2.50;1.40;;;1.10;99.90;;;;;;5044759;28;20217;-70
2022/01/23 07:46:54;;;;;;;3.37;1.40;;;1.00;99.90;;;;;;5054971;28;20206;-68
2022/01/23 07:49:21;;;;;;;1.57;1.17;;;1.00;99.90;;;;;;5049591;28;20207;-70
2022/01/23 07:51:49;;;;;;;2.73;1.40;;;1.10;99.90;;;;;;5049298;28;20277;-69
2022/01/23 07:54:16;;;;;;;2.63;1.30;;;1.10;99.90;;;;;;5053221;28;20226;-71
2022/01/23 07:56:43;;;;;;;1.90;1.00;;;1.00;99.90;;;;;;5054571;28;20312;-71
2022/01/23 07:59:10;;;;;;;3.37;1.73;;;1.10;99.90;;;;;;5056168;28;20691;-70
2022/01/23 08:01:39;;;;;;;3.30;1.47;;;1.20;99.90;;;;;;5055091;28;20288;-69
2022/01/23 08:04:06;;;;;;;6.23;2.13;;;1.20;99.90;;;;;;5054423;28;20256;-71
2022/01/23 08:06:39;;;;;;;7.23;1.87;;;1.30;99.90;;;;;;5054690;28;20673;-70
2022/01/23 08:09:08;;;;;;;4.50;1.73;;;1.30;99.90;;;;;;5052191;28;20189;-70
2022/01/23 08:11:35;;;;;;;4.07;2.07;;;1.30;99.90;;;;;;5054113;28;20782;-71
2022/01/23 08:14:02;;;;;;;5.67;2.40;;;1.30;99.90;;;;;;5055365;28;20232;-70
2022/01/23 08:16:29;;;;;;;4.07;2.17;;;1.40;99.90;;;;;;5055227;28;20212;-67
2022/01/23 08:18:56;;;;;;;3.97;2.03;;;1.40;99.90;;;;;;5054152;28;20234;-70
2022/01/23 08:21:22;;;;;;;7.27;2.57;;;1.50;99.90;;;;;;5054633;28;20206;-70
2022/01/23 08:23:52;;;;;;;3.10;2.00;;;1.50;99.90;;;;;;5050649;28;20310;-70
2022/01/23 08:26:21;;;;;;;2.90;1.87;;;1.50;99.90;;;;;;5050465;28;20224;-69
2022/01/23 08:28:48;;;;;;;3.13;2.07;;;1.60;99.90;;;;;;5052601;28;20677;-70
2022/01/23 08:31:15;;;;;;;3.83;1.63;;;1.60;99.90;;;;;;5050826;28;20205;-69
2022/01/23 08:33:42;;;;;;;4.57;2.50;;;1.70;99.90;;;;;;5054389;28;20231;-71
2022/01/23 08:36:09;;;;;;;3.40;1.90;;;1.90;99.90;;;;;;5053585;28;20206;-69
2022/01/23 08:38:36;;;;;;;3.37;1.87;;;2.10;99.90;;;;;;5052574;28;20202;-73
2022/01/23 08:43:49;;;;;;;2.50;1.50;;;2.70;99.90;;;;;;5046499;28;20200;-69
2022/01/23 08:46:17;;;;;;;2.43;1.57;;;3.10;99.90;;;;;;5052649;28;20210;-69
2022/01/23 08:48:44;;;;;;;3.43;1.40;;;3.40;99.90;;;;;;5053343;28;20237;-69
2022/01/23 08:51:11;;;;;;;3.33;1.73;;;3.70;99.90;;;;;;5053144;28;20206;-70
2022/01/23 08:53:39;;;;;;;1.93;1.60;;;4.00;99.90;;;;;;5051933;28;20225;-70
2022/01/23 08:56:06;;;;;;;2.47;1.60;;;4.20;99.90;;;;;;5043381;28;20585;-67
2022/01/23 08:58:33;;;;;;;1.70;1.50;;;4.50;99.90;;;;;;5053324;28;20214;-69
2022/01/23 09:01:01;;;;;;;2.33;1.70;;;4.90;99.90;;;;;;5052235;28;20297;-69
2022/01/23 09:03:28;;;;;;;3.33;1.70;;;5.50;99.90;;;;;;5042923;28;20880;-70
2022/01/23 09:05:55;;;;;;;3.83;2.03;;;6.50;99.90;;;;;;5051565;28;20296;-70
2022/01/23 09:08:22;;;;;;;2.33;1.80;;;7.50;97.10;;;;;;5051406;28;20209;-70
2022/01/23 09:10:58;;;;;;;2.33;1.80;;;8.00;91.70;;;;;;5045548;28;20233;-69
2022/01/23 09:13:40;;;;;;;1.63;1.40;;;8.30;88.70;;;;;;5051663;28;20245;-69
2022/01/23 09:16:08;;;;;;;2.37;1.53;;;8.50;82.30;;;;;;5052152;28;20205;-71
2022/01/23 09:18:35;;;;;;;2.83;1.50;;;8.80;81.00;;;;;;5048128;28;20604;-69
2022/01/23 09:21:04;;;;;;;1.97;1.70;;;9.10;76.90;;;;;;5042225;28;20284;-71
2022/01/23 09:23:32;;;;;;;2.70;1.60;;;9.50;77.00;;;;;;5058477;28;20208;-71
2022/01/23 09:26:01;;;;;;;3.20;1.43;;;10.60;77.40;;;;;;5052471;28;20218;-70
2022/01/23 09:28:32;;;;;;;1.67;1.50;;;12.40;71.40;;;;;;5051424;28;20659;-70
2022/01/23 09:30:59;;;;;;;3.43;1.60;;;14.50;59.30;;;;;;5051350;28;20690;-71
2022/01/23 09:33:28;;;;;;;2.80;1.50;;;16.20;53.80;;;;;;5052482;28;20359;-71
2022/01/23 09:35:55;;;;;;;2.40;1.60;;;18.10;48.30;;;;;;5045632;28;20199;-71
2022/01/23 09:38:23;;;;;;;1.87;1.60;;;19.00;43.90;;;;;;5049617;28;20214;-70
2022/01/23 09:40:54;;;;;;;2.10;1.30;;;19.50;42.10;;;;;;5052538;28;20304;-70
2022/01/23 09:43:23;;;;;;;2.20;1.53;;;19.00;39.20;;;;;;5052577;28;20202;-71
2022/01/23 09:45:52;;;;;;;1.97;1.63;;;18.90;40.50;;;;;;5053391;28;20206;-71
2022/01/23 09:48:21;;;;;;;1.70;1.50;;;19.40;40.10;;;;;;5053154;28;20214;-72
2022/01/23 09:50:51;;;;;;;1.98;1.77;;;20.40;39.30;;;;;;5053795;28;20202;-71
2022/01/23 09:53:23;;;;;;;2.22;1.77;;;22.00;36.50;;;;;;5053518;28;20324;-71
2022/01/23 09:55:53;;;;;;;2.58;1.98;;;23.50;35.10;;;;;;5051979;28;20218;-71
2022/01/23 09:58:21;;;;;;;1.70;1.60;;;24.80;33.00;;;;;;5052967;28;20210;-72
2022/01/23 10:00:48;;;;;;;3.15;1.75;;;25.40;31.80;;;;;;5052632;28;20266;-71
2022/01/23 10:03:19;;;;;;;2.40;1.77;;;25.60;31.00;;;;;;5051786;28;20289;-69
2022/01/23 10:05:49;;;;;;;2.45;1.70;;;26.00;29.90;;;;;;5052040;28;20217;-71
2022/01/23 10:08:18;;;;;;;1.60;1.35;;;26.50;30.00;;;;;;5052953;28;20652;-72
2022/01/23 10:10:51;;;;;;;2.78;1.83;;;27.60;28.80;;;;;;5051886;28;20596;-71
2022/01/23 10:13:20;;;;;;;2.08;1.80;;;28.70;27.90;;;;;;5051091;28;20627;-71
2022/01/23 10:15:47;;;;;;;2.40;1.70;;;29.60;27.30;;;;;;5051889;28;20214;-70
2022/01/23 10:18:14;;;;;;;2.45;1.67;;;30.40;26.70;;;;;;5052989;28;20214;-71
2022/01/23 10:20:41;;;;;;;5.97;2.08;;;30.20;25.80;;;;;;5053195;28;20216;-71
2022/01/23 10:23:09;;;;;;;8.43;2.38;;;29.90;26.00;;;;;;5053335;28;20562;-71
2022/01/23 10:25:41;;;;;;;2.60;2.13;;;30.20;25.90;;;;;;5052838;28;20202;-71
2022/01/23 10:28:16;;;;;;;2.67;2.05;;;31.20;25.40;;;;;;5047353;28;20213;-69
2022/01/23 10:30:46;;;;;;;2.53;2.10;;;31.80;25.20;;;;;;5052933;28;20649;-71
2022/01/23 10:33:18;;;;;;;2.33;1.73;;;32.30;24.50;;;;;;5053440;28;20230;-71
2022/01/23 10:35:57;;;;;;;2.88;2.38;;;33.00;23.90;;;;;;5050754;28;20217;-70
2022/01/23 10:38:28;;;;;;;2.38;2.15;;;33.40;23.60;;;;;;5043263;28;20620;-70
2022/01/23 10:41:06;;;;;;;4.88;2.80;;;33.60;23.00;;;;;;5052879;28;20557;-71
2022/01/23 10:46:48;;;;;;;3.33;2.50;;;32.60;22.60;;;;;;5052057;28;20294;-73
2022/01/23 10:49:17;;;;;;;3.83;2.63;;;32.40;23.00;;;;;;5052551;28;20201;-70
2022/01/23 10:51:50;;;;;;;3.80;2.65;;;32.90;22.80;;;;;;5053425;28;20220;-72
2022/01/23 10:54:22;;;;;;;6.20;2.55;;;33.00;22.90;;;;;;5053996;28;20242;-72
2022/01/23 10:57:01;;;;;;;3.92;3.00;;;33.10;22.60;;;;;;5052340;28;20764;-69
2022/01/23 10:59:41;;;;;;;2.70;2.47;;;33.10;22.90;;;;;;5053333;28;20284;-71
2022/01/23 11:02:09;;;;;;;3.67;2.70;;;34.00;22.50;;;;;;5051523;28;20209;-71
2022/01/23 11:04:51;;;;;;;2.95;2.55;;;34.10;21.60;;;;;;5052504;28;20208;-71
2022/01/23 11:07:18;;;;;;;2.97;2.67;;;33.40;22.00;;;;;;5052316;28;20201;-72
2022/01/23 11:09:46;;;;;;;2.80;2.60;;;32.80;21.40;;;;;;5052236;28;20404;-70
2022/01/23 11:12:30;;;;;;;3.15;2.45;;;32.30;22.50;;;;;;5052666;28;20793;-69
2022/01/23 11:17:51;;;;;;;2.90;2.60;;;32.60;22.30;;;;;;5026847;28;20750;-72
2022/01/23 11:20:38;;;;;;;3.17;2.40;;;32.20;22.60;;;;;;5052538;28;20297;-72
2022/01/23 11:23:14;;;;;;;4.88;2.60;;;32.10;22.30;;;;;;5052767;28;20547;-70
2022/01/23 11:25:44;;;;;;;2.83;2.63;;;32.00;22.40;;;;;;5052328;28;20679;-72
2022/01/23 11:28:12;;;;;;;3.17;2.72;;;31.80;22.50;;;;;;5052911;28;20225;-71
2022/01/23 11:30:43;;;;;;;3.42;2.60;;;32.40;22.30;;;;;;5053055;28;20609;-72
2022/01/23 11:33:12;;;;;;;3.42;3.13;;;33.10;22.20;;;;;;5053584;28;20201;-71
2022/01/23 11:35:39;;;;;;;4.65;2.67;;;33.90;21.70;;;;;;5053401;28;20269;-71
2022/01/23 11:38:11;;;;;;;3.55;2.92;;;34.10;21.50;;;;;;5053909;28;20217;-71
2022/01/23 11:54:38;;;;;;;3.72;3.42;;;35.90;20.30;;;;;;5050090;28;20271;-75
2022/01/23 11:57:26;;;;;;;4.43;3.05;;;35.60;19.80;;;;;;5049629;28;20226;-74
2022/01/23 11:59:59;;;;;;;3.33;2.97;;;35.10;20.40;;;;;;5049893;28;20209;-75
2022/01/23 12:02:35;;;;;;;3.78;3.30;;;35.20;20.20;;;;;;5053619;28;20294;-73
2022/01/23 12:05:24;;;;;;;5.10;3.67;;;35.00;20.20;;;;;;5053368;28;20678;-74
2022/01/23 12:08:37;;;;;;;4.00;3.60;;;34.80;20.10;;;;;;5047951;28;20210;-74
2022/01/23 12:17:07;;;;;;;5.63;3.60;;;23.40;23.10;;;;;;5053069;28;20209;-75
2022/01/23 12:19:44;;;;;;;4.57;3.53;;;20.00;24.80;;;;;;5053189;28;20309;-74
2022/01/23 12:22:35;;;;;;;6.13;4.07;;;16.10;27.30;;;;;;5052766;28;20291;-74
2022/01/23 12:25:18;;;;;;;5.03;3.40;;;15.80;27.80;;;;;;5041246;28;20198;-74
2022/01/23 12:27:46;;;;;;;6.17;3.20;;;14.50;28.80;;;;;;5051230;28;20241;-73
2022/01/23 12:30:33;;;;;;;4.27;3.30;;;13.60;29.70;;;;;;5050900;28;20572;-74
2022/01/23 12:33:28;;;;;;;4.10;2.70;;;12.60;30.80;;;;;;5053297;28;20206;-75
2022/01/23 12:35:58;;;;;;;7.97;3.67;;;11.70;32.00;;;;;;5052421;28;20198;-74
2022/01/23 12:38:30;;;;;;;4.30;2.87;;;10.90;33.30;;;;;;5039785;28;20217;-75
2022/01/23 12:41:20;;;;;;;5.20;3.20;;;10.20;34.90;;;;;;5053204;28;20217;-74
2022/01/23 12:43:47;;;;;;;3.87;2.73;;;9.50;36.90;;;;;;5054451;28;20267;-75
2022/01/23 12:46:30;;;;;;;6.07;3.20;;;8.30;38.30;;;;;;5053939;28;20222;-74
2022/01/23 12:49:00;;;;;;;5.40;3.70;;;7.70;39.30;;;;;;5054207;28;20202;-74
2022/01/23 12:51:38;;;;;;;4.83;3.17;;;7.30;40.50;;;;;;5054055;28;20348;-74
2022/01/23 12:54:25;;;;;;;6.27;3.90;;;7.00;40.70;;;;;;5054778;28;20237;-75
2022/01/23 12:56:53;;;;;;;4.67;3.37;;;7.00;41.30;;;;;;5054418;28;20233;-74
2022/01/23 12:59:30;;;;;;;8.23;3.63;;;6.10;41.90;;;;;;5052745;28;20221;-75
2022/01/23 13:02:02;;;;;;;5.33;3.20;;;5.70;42.60;;;;;;5053340;28;20202;-73
2022/01/23 13:04:37;;;;;;;4.40;3.23;;;5.70;43.10;;;;;;5053642;28;20206;-74
2022/01/23 13:07:11;;;;;;;6.90;2.97;;;5.50;43.70;;;;;;5053098;28;20573;-74
2022/01/23 13:09:45;;;;;;;5.57;3.10;;;5.30;45.10;;;;;;5052025;28;20194;-74
2022/01/23 13:12:26;;;;;;;6.23;3.33;;;5.10;45.40;;;;;;5051873;28;20781;-75
2022/01/23 13:15:09;;;;;;;4.33;2.97;;;4.90;46.00;;;;;;5052763;28;20221;-74
2022/01/23 13:17:47;;;;;;;4.03;2.73;;;4.60;46.30;;;;;;5052463;28;20293;-73
2022/01/23 13:26:40;;;;;;;4.20;3.10;;;4.10;47.50;;;;;;5051726;28;20194;-74
2022/01/23 13:32:08;;;;;;;4.30;3.10;;;4.00;47.50;;;;;;5046894;28;20281;-75
2022/01/23 13:34:37;;;;;;;4.70;2.87;;;4.00;47.70;;;;;;5053861;28;20206;-74
2022/01/23 13:37:08;;;;;;;4.77;3.23;;;3.90;48.00;;;;;;5045707;28;20255;-73
2022/01/23 13:39:43;;;;;;;4.80;3.27;;;3.90;48.30;;;;;;5053081;28;20208;-74
2022/01/23 13:42:30;;;;;;;4.97;3.67;;;3.90;48.80;;;;;;5055224;28;20229;-74
2022/01/23 13:54:14;;;;;;;4.93;3.30;;;3.70;49.30;;;;;;5039259;28;20270;-74
2022/01/23 13:59:41;;;;;;;5.83;3.43;;;3.50;49.70;;;;;;5001317;28;20203;-75
2022/01/23 14:02:16;;;;;;;5.57;3.63;;;3.40;50.00;;;;;;5047640;28;20293;-74
2022/01/23 14:04:46;;;;;;;5.43;3.40;;;3.40;50.10;;;;;;5051660;28;20662;-75
2022/01/23 14:07:18;;;;;;;7.17;3.40;;;3.30;50.40;;;;;;5051367;28;20248;-75
2022/01/23 14:09:47;;;;;;;7.30;3.30;;;3.10;50.70;;;;;;5040891;28;20659;-73
2022/01/23 14:12:16;;;;;;;4.57;3.30;;;3.00;50.70;;;;;;5051449;28;20342;-74
2022/01/23 14:14:52;;;;;;;4.73;3.30;;;3.00;50.90;;;;;;5052385;28;20229;-74
2022/01/23 14:17:20;;;;;;;5.47;3.40;;;3.00;51.40;;;;;;5051456;28;20201;-75
2022/01/23 14:20:03;;;;;;;5.63;3.53;;;2.90;51.70;;;;;;5051562;28;20208;-71
2022/01/23 14:22:32;;;;;;;9.57;3.50;;;2.80;52.10;;;;;;5052024;28;20204;-75
2022/01/23 14:25:13;;;;;;;8.03;3.70;;;2.70;52.50;;;;;;5047138;28;20652;-72
2022/01/23 14:27:43;;;;;;;6.33;3.80;;;2.70;52.90;;;;;;5045312;28;20225;-73
2022/01/23 14:30:14;;;;;;;6.40;3.50;;;2.70;52.50;;;;;;5051011;28;20216;-74
2022/01/23 14:32:45;;;;;;;5.93;3.50;;;2.70;52.50;;;;;;5050449;28;20285;-73
2022/01/23 14:35:15;;;;;;;6.87;3.10;;;2.60;52.70;;;;;;5049612;28;20313;-74
2022/01/23 14:37:44;;;;;;;5.63;3.13;;;2.60;52.80;;;;;;5050113;28;20494;-75
2022/01/23 14:40:16;;;;;;;8.00;3.87;;;2.50;52.70;;;;;;5050675;28;20267;-73
2022/01/23 14:43:01;;;;;;;6.00;3.60;;;2.40;52.70;;;;;;5052460;28;20293;-74
2022/01/23 14:45:31;;;;;;;8.23;3.40;;;2.40;52.80;;;;;;5051320;28;20206;-73
2022/01/23 14:47:58;;;;;;;6.83;3.63;;;2.30;52.90;;;;;;5050940;28;20212;-71
2022/01/23 14:50:30;;;;;;;5.67;3.43;;;2.30;53.00;;;;;;5050338;28;20209;-72
2022/01/23 14:52:58;;;;;;;5.43;3.43;;;2.30;53.20;;;;;;5046432;28;20202;-74
2022/01/23 14:55:28;;;;;;;6.93;3.40;;;2.20;53.30;;;;;;5048868;28;20805;-71
2022/01/23 14:58:00;;;;;;;4.97;3.67;;;2.20;53.50;;;;;;5050904;28;20225;-71
2022/01/23 15:00:29;;;;;;;7.60;3.87;;;2.00;53.60;;;;;;5049819;28;20302;-73
2022/01/23 15:02:56;;;;;;;8.77;3.50;;;1.90;54.50;;;;;;5048556;28;20246;-72
2022/01/23 15:05:23;;;;;;;6.00;3.77;;;1.80;54.00;;;;;;5050804;28;20202;-73
2022/01/23 15:07:52;;;;;;;6.93;4.00;;;1.70;54.30;;;;;;5054278;28;20233;-71
2022/01/23 15:10:19;;;;;;;6.17;3.87;;;1.60;54.60;;;;;;5053833;28;20202;-72
2022/01/23 15:12:47;;;;;;;5.30;3.50;;;1.60;54.70;;;;;;5048209;28;20232;-70
2022/01/23 15:15:14;;;;;;;6.70;3.83;;;1.60;55.60;;;;;;5051105;28;20226;-72
2022/01/23 15:17:41;;;;;;;7.10;4.20;;;1.60;55.00;;;;;;5051019;28;20222;-72
2022/01/23 15:20:09;;;;;;;6.30;3.57;;;1.50;55.10;;;;;;5047882;28;20202;-73
2022/01/23 15:22:38;;;;;;;6.20;3.57;;;1.60;55.10;;;;;;5046624;28;20642;-74
2022/01/23 15:25:09;;;;;;;13.27;4.33;;;1.50;55.30;;;;;;5049185;28;20264;-73
2022/01/23 15:27:36;;;;;;;5.10;3.20;;;1.50;55.50;;;;;;5051231;28;20229;-73
2022/01/23 15:30:06;;;;;;;9.23;4.10;;;1.50;55.70;;;;;;5052308;28;20229;-74
2022/01/23 15:32:33;;;;;;;6.73;4.17;;;1.50;55.70;;;;;;5050665;28;20285;-73
2022/01/23 15:35:00;;;;;;;6.13;3.67;;;1.50;55.70;;;;;;5050693;28;20225;-74
2022/01/23 15:37:27;;;;;;;7.90;3.50;;;1.50;55.90;;;;;;5054834;28;20215;-73
2022/01/23 15:39:53;;;;;;;9.60;3.70;;;1.50;55.90;;;;;;5049541;28;20210;-74
2022/01/23 15:42:20;;;;;;;6.83;3.83;;;1.40;55.90;;;;;;5050333;28;20208;-74
2022/01/23 15:44:47;;;;;;;6.20;3.60;;;1.50;56.10;;;;;;5055707;28;20229;-71
2022/01/23 15:47:16;;;;;;;7.17;3.93;;;1.50;56.20;;;;;;5052575;28;20226;-71
2022/01/23 15:49:43;;;;;;;8.87;3.70;;;1.50;56.50;;;;;;5054120;28;20212;-71
2022/01/23 15:52:12;;;;;;;7.30;3.70;;;1.50;56.70;;;;;;5053905;28;20296;-70
2022/01/23 15:54:39;;;;;;;11.63;4.30;;;1.50;56.80;;;;;;5054075;28;20296;-72
2022/01/23 15:57:07;;;;;;;9.30;4.20;;;1.40;56.70;;;;;;5053455;28;20236;-73
2022/01/23 15:59:35;;;;;;;8.93;4.33;;;1.40;56.80;;;;;;5054105;28;20208;-70